Time;durP1;ratioP1;P1;durP2;ratioP2;P2;SDS_P1;SDS_P2;PMS_P1;PMS_P2;Temp;Humidity;BMP_temperature;BMP_pressure;BME280_temperature;BME280_humidity;BME280_pressure;Samples;Min_cycle;Max_cycle;Signal;HPM_P1;HPM_P2
2023/01/12 00:01:10;;;;;;;1.20;1.10;;;;;;;1.70;92.11;93440.75;5009049;28;20021;-40
2023/01/12 00:03:36;;;;;;;3.30;1.80;;;;;;;1.76;92.25;93441.47;5008760;28;20025;-40
2023/01/12 00:06:06;;;;;;;14.43;1.50;;;;;;;1.69;93.55;93442.00;5027545;28;20026;-40
2023/01/12 00:08:34;;;;;;;1.02;1.02;;;;;;;1.69;93.18;93434.53;5028713;28;20109;-40
2023/01/12 00:11:01;;;;;;;1.27;1.27;;;;;;;1.69;93.60;93440.00;5028680;28;20025;-40
2023/01/12 00:13:30;;;;;;;1.20;1.10;;;;;;;1.62;93.90;93445.94;5028334;28;20033;-40
2023/01/12 00:18:41;;;;;;;1.17;1.08;;;;;;;1.58;94.16;93445.44;5009067;28;20061;-40
2023/01/12 00:21:07;;;;;;;0.90;0.90;;;;;;;1.59;93.64;93444.19;5008861;28;20417;-40
2023/01/12 00:23:32;;;;;;;1.50;1.30;;;;;;;1.45;94.82;93447.88;5008727;28;20026;-40
2023/01/12 00:25:58;;;;;;;1.10;1.00;;;;;;;1.56;94.68;93450.59;5008474;28;20018;-40
2023/01/12 00:28:23;;;;;;;1.45;1.35;;;;;;;1.53;94.31;93446.16;5008219;28;20025;-40
2023/01/12 00:30:48;;;;;;;1.98;1.42;;;;;;;1.39;95.16;93452.50;5008533;28;20099;-40
2023/01/12 00:33:14;;;;;;;1.50;1.40;;;;;;;1.43;96.41;93458.47;5008647;28;20026;-40
2023/01/12 00:35:39;;;;;;;1.15;1.05;;;;;;;1.48;95.76;93450.34;5007914;28;20042;-40
2023/01/12 00:38:08;;;;;;;1.98;1.65;;;;;;;1.53;95.61;93443.44;5008108;28;20037;-40
2023/01/12 00:40:35;;;;;;;1.63;1.52;;;;;;;1.51;95.48;93448.63;5008334;28;20032;-40
2023/01/12 00:45:49;;;;;;;2.75;2.10;;;;;;;1.42;95.84;93452.31;5007888;28;20425;-40
2023/01/12 00:48:14;;;;;;;2.28;1.63;;;;;;;1.39;95.73;93455.97;5007742;28;20029;-40
2023/01/12 00:50:39;;;;;;;1.65;1.35;;;;;;;1.36;96.40;93456.22;5008288;28;20037;-39
2023/01/12 00:53:05;;;;;;;2.90;1.98;;;;;;;1.44;96.32;93465.41;5008197;28;20029;-39
2023/01/12 00:55:30;;;;;;;1.35;1.20;;;;;;;1.45;96.47;93459.47;5007975;28;20029;-40
2023/01/12 00:57:56;;;;;;;1.50;1.40;;;;;;;1.43;96.08;93455.75;5007740;28;20445;-40
2023/01/12 01:00:22;;;;;;;1.83;1.60;;;;;;;1.50;96.32;93461.47;5007862;28;20036;-40
2023/01/12 01:02:47;;;;;;;2.30;2.05;;;;;;;1.52;95.38;93459.00;5008460;28;20044;-40
2023/01/12 01:05:13;;;;;;;7.13;3.88;;;;;;;1.38;96.44;93465.41;5020376;28;20390;-40
2023/01/12 01:07:38;;;;;;;2.83;2.58;;;;;;;1.43;95.70;93461.94;5027751;28;20791;-40
2023/01/12 01:10:04;;;;;;;3.33;2.20;;;;;;;1.50;95.57;93463.44;5027351;28;20029;-40
2023/01/12 01:12:30;;;;;;;5.22;3.60;;;;;;;1.48;96.05;93471.34;5028130;28;20064;-40
2023/01/12 01:14:55;;;;;;;4.07;2.58;;;;;;;1.44;95.32;93476.28;5027393;28;20060;-40
2023/01/12 01:17:20;;;;;;;8.85;5.47;;;;;;;1.41;95.85;93469.09;5018791;28;20057;-40
2023/01/12 01:19:47;;;;;;;14.90;8.45;;;;;;;1.39;96.03;93466.88;5007622;28;20027;-40
2023/01/12 01:22:12;;;;;;;14.10;9.93;;;;;;;1.47;96.02;93462.44;5008023;28;20509;-40
2023/01/12 01:24:39;;;;;;;5.47;2.85;;;;;;;1.50;95.89;93469.63;5007688;28;20025;-39
2023/01/12 01:27:04;;;;;;;3.72;3.00;;;;;;;1.54;94.50;93464.69;5007322;28;20026;-40
2023/01/12 01:29:30;;;;;;;3.85;3.00;;;;;;;1.57;93.34;93473.84;5007725;28;20087;-40
2023/01/12 01:31:56;;;;;;;6.45;3.90;;;;;;;1.58;93.47;93469.91;5007690;28;20093;-40
2023/01/12 01:34:22;;;;;;;6.22;5.00;;;;;;;1.53;94.53;93471.38;5007548;28;20049;-40
2023/01/12 01:36:48;;;;;;;6.43;5.40;;;;;;;1.52;94.46;93459.00;5007349;28;20030;-40
2023/01/12 01:39:14;;;;;;;4.40;2.83;;;;;;;1.59;94.27;93462.47;5007437;28;20037;-40
2023/01/12 01:41:39;;;;;;;4.05;3.65;;;;;;;1.50;94.83;93464.19;5007815;28;20497;-40
2023/01/12 01:44:30;;;;;;;6.22;4.00;;;;;;;1.46;95.77;93466.41;5007789;28;20092;-40
2023/01/12 01:47:01;;;;;;;5.55;3.78;;;;;;;1.50;95.70;93463.44;4987683;28;20034;-40
2023/01/12 01:49:31;;;;;;;5.25;3.88;;;;;;;1.51;95.40;93465.69;4986580;28;20120;-40
2023/01/12 01:52:08;;;;;;;3.40;2.92;;;;;;;1.45;95.83;93475.06;4988175;28;20042;-40
2023/01/12 01:54:38;;;;;;;5.90;4.13;;;;;;;1.44;96.26;93476.28;4987978;28;20073;-40
2023/01/12 01:57:03;;;;;;;12.40;7.45;;;;;;;1.41;96.71;93472.56;4987754;28;20041;-40
2023/01/12 01:59:31;;;;;;;7.15;4.97;;;;;;;1.52;96.21;93469.88;4987620;28;20034;-40
2023/01/12 02:01:57;;;;;;;5.97;4.82;;;;;;;1.43;96.28;93463.91;4991654;28;20023;-40
2023/01/12 02:04:24;;;;;;;4.28;2.92;;;;;;;1.45;96.65;93466.91;5003339;28;20448;-40
2023/01/12 02:06:51;;;;;;;4.28;2.78;;;;;;;1.46;97.08;93465.66;5029695;28;20424;-40
2023/01/12 02:09:21;;;;;;;2.97;2.30;;;;;;;1.49;96.64;93468.13;5030787;28;20036;-40
2023/01/12 02:17:33;;;;;;;2.08;1.85;;;;;;;1.67;95.44;93471.66;5023082;28;20061;-40
2023/01/12 02:20:25;;;;;;;3.38;2.53;;;;;;;1.49;96.01;93479.00;5010807;28;20124;-40
2023/01/12 02:23:09;;;;;;;3.15;2.40;;;;;;;1.56;95.43;93477.78;5009744;28;20029;-40
2023/01/12 02:25:59;;;;;;;2.33;1.90;;;;;;;1.59;94.95;93476.84;5010752;28;20022;-40
2023/01/12 02:28:30;;;;;;;2.88;2.25;;;;;;;1.47;96.40;93476.03;4990210;28;20128;-40
2023/01/12 02:31:23;;;;;;;2.67;2.20;;;;;;;1.48;96.61;93479.50;5028486;28;20029;-40
2023/01/12 02:34:10;;;;;;;2.60;1.90;;;;;;;1.52;95.81;93471.84;5030903;28;20459;-40
2023/01/12 02:36:52;;;;;;;2.95;1.85;;;;;;;1.51;95.46;93478.53;5029901;28;20654;-40
2023/01/12 02:39:38;;;;;;;2.10;1.90;;;;;;;1.46;95.22;93469.13;5028665;28;20507;-40
2023/01/12 02:42:40;;;;;;;1.80;1.60;;;;;;;1.54;95.57;93466.66;5030453;28;20026;-40
2023/01/12 02:45:33;;;;;;;3.05;2.10;;;;;;;1.56;95.22;93466.19;5020587;28;20485;-40
2023/01/12 02:48:10;;;;;;;2.15;1.80;;;;;;;1.54;94.86;93455.78;5010431;28;20030;-40
2023/01/12 02:50:54;;;;;;;2.25;1.98;;;;;;;1.62;94.64;93466.94;5010393;28;20112;-40
2023/01/12 02:53:26;;;;;;;4.15;2.25;;;;;;;1.39;95.90;93457.97;5010406;28;20036;-40
2023/01/12 02:55:51;;;;;;;3.00;2.00;;;;;;;1.57;95.59;93462.22;5010300;28;20030;-39
2023/01/12 02:58:20;;;;;;;4.68;2.40;;;;;;;1.49;95.75;93473.56;5008606;28;20509;-40
2023/01/12 03:00:48;;;;;;;2.65;2.17;;;;;;;1.45;95.45;93461.47;5008541;28;20069;-40
2023/01/12 03:03:14;;;;;;;8.73;4.85;;;;;;;1.45;96.08;93459.47;5010201;28;20524;-40
2023/01/12 03:05:40;;;;;;;8.32;5.10;;;;;;;1.50;95.69;93458.75;5026096;28;20030;-40
2023/01/12 03:08:12;;;;;;;31.55;17.38;;;;;;;1.44;96.06;93449.81;5028100;28;20029;-40
2023/01/12 03:10:50;;;;;;;20.35;13.55;;;;;;;1.45;94.85;93456.03;5028584;28;20033;-40
2023/01/12 03:13:16;;;;;;;21.38;15.50;;;;;;;1.41;95.36;93458.97;5028519;28;20030;-40
2023/01/12 03:15:46;;;;;;;17.08;10.82;;;;;;;1.49;95.42;93457.25;5028127;28;20029;-40
2023/01/12 03:18:50;;;;;;;4.20;3.80;;;;;;;1.51;95.18;93465.69;5014054;28;20025;-40
2023/01/12 03:21:38;;;;;;;4.55;3.65;;;;;;;1.56;94.70;93458.75;4996102;28;20053;-40
2023/01/12 03:24:07;;;;;;;3.33;2.97;;;;;;;1.62;94.40;93458.78;5007961;28;20430;-40
2023/01/12 03:26:35;;;;;;;2.60;2.40;;;;;;;1.58;94.24;93450.88;5009487;28;20026;-40
2023/01/12 03:29:12;;;;;;;3.63;3.30;;;;;;;1.50;94.36;93455.28;5009548;28;20034;-40
2023/01/12 03:31:38;;;;;;;4.20;2.85;;;;;;;1.48;94.85;93455.78;5008410;28;20025;-40
2023/01/12 03:34:03;;;;;;;3.58;3.00;;;;;;;1.56;94.63;93460.75;5009429;28;20509;-40
2023/01/12 03:36:38;;;;;;;4.50;2.50;;;;;;;1.55;94.07;93457.28;5009136;28;20037;-40
2023/01/12 03:39:26;;;;;;;4.93;2.55;;;;;;;1.51;94.91;93452.09;5009305;28;20034;-40
2023/01/12 03:42:07;;;;;;;3.28;2.88;;;;;;;1.45;95.42;93456.75;5007953;28;20040;-40
2023/01/12 03:44:41;;;;;;;4.75;2.83;;;;;;;1.42;95.00;93455.03;5008875;28;20611;-40
2023/01/12 03:47:15;;;;;;;5.30;3.88;;;;;;;1.32;95.21;93459.16;5007816;28;20026;-40
2023/01/12 03:49:49;;;;;;;2.60;2.28;;;;;;;1.39;94.40;93457.97;5007614;28;20573;-40
2023/01/12 03:52:15;;;;;;;2.55;2.30;;;;;;;1.39;94.77;93457.97;5008049;28;20061;-40
2023/01/12 03:54:42;;;;;;;3.35;2.83;;;;;;;1.40;94.83;93454.03;5009062;28;20521;-40
2023/01/12 03:57:08;;;;;;;3.17;2.78;;;;;;;1.38;94.98;93461.94;4991129;28;20026;-40
2023/01/12 03:59:34;;;;;;;6.35;3.67;;;;;;;1.27;94.66;93453.72;5007370;28;20041;-40
2023/01/12 04:02:00;;;;;;;8.20;4.75;;;;;;;1.24;95.37;93462.84;5008093;28;20087;-40
2023/01/12 04:04:25;;;;;;;5.32;3.92;;;;;;;1.17;95.59;93458.63;5008825;28;20033;-40
2023/01/12 04:06:51;;;;;;;6.75;4.95;;;;;;;1.06;95.28;93464.00;5008921;28;20036;-40
2023/01/12 04:09:16;;;;;;;6.70;3.67;;;;;;;1.06;96.12;93457.84;5008623;28;20485;-40
2023/01/12 04:14:26;;;;;;;6.32;4.38;;;;;;;0.87;96.60;93457.47;5008921;28;20037;-40
2023/01/12 04:16:52;;;;;;;32.22;7.72;;;;;;;0.78;97.60;93455.69;5008533;28;20038;-40
2023/01/12 04:19:17;;;;;;;25.35;11.38;;;;;;;0.67;98.44;93469.22;5008316;28;20037;-40
2023/01/12 04:24:27;;;;;;;12.27;6.60;;;;;;;0.66;98.50;93467.75;5008591;28;20091;-40
2023/01/12 04:26:52;;;;;;;13.48;7.60;;;;;;;0.70;98.93;93464.78;5007322;28;20025;-40
2023/01/12 04:29:18;;;;;;;15.90;7.20;;;;;;;0.69;99.41;93471.47;5012478;28;20118;-40
2023/01/12 04:31:43;;;;;;;15.80;8.60;;;;;;;0.73;99.78;93474.69;5028169;28;20026;-40
2023/01/12 04:34:09;;;;;;;11.18;6.35;;;;;;;0.75;99.51;93472.25;5027752;28;20037;-40
2023/01/12 04:36:35;;;;;;;11.10;6.55;;;;;;;0.89;98.94;93471.31;5027711;28;20032;-40
2023/01/12 04:39:00;;;;;;;13.55;7.57;;;;;;;0.87;99.36;93475.78;5027940;28;20030;-40
2023/01/12 04:41:25;;;;;;;13.63;7.95;;;;;;;0.82;98.59;93471.78;5028246;28;20040;-40
2023/01/12 04:43:51;;;;;;;12.48;6.88;;;;;;;0.80;99.02;93481.66;5028168;28;20501;-40
2023/01/12 04:46:16;;;;;;;10.20;7.85;;;;;;;0.88;98.57;93490.84;5013151;28;20497;-40
2023/01/12 04:48:45;;;;;;;14.13;8.00;;;;;;;0.78;98.59;93493.75;5008066;28;20767;-40
2023/01/12 04:51:11;;;;;;;14.38;7.88;;;;;;;0.81;99.22;93494.00;5008131;28;20068;-40
2023/01/12 04:53:36;;;;;;;17.83;9.68;;;;;;;0.84;99.01;93488.34;5008069;28;20037;-40
2023/01/12 04:56:04;;;;;;;18.40;10.88;;;;;;;0.87;98.92;93494.81;5008027;28;20030;-40
2023/01/12 04:58:29;;;;;;;21.42;12.15;;;;;;;0.84;99.26;93495.75;5007846;28;20087;-40
2023/01/12 05:00:54;;;;;;;19.95;11.38;;;;;;;0.86;99.31;93494.06;5007862;28;20029;-40
2023/01/12 05:03:20;;;;;;;20.50;9.93;;;;;;;0.78;100.00;93501.16;5007853;28;20030;-40
2023/01/12 05:05:45;;;;;;;18.15;11.05;;;;;;;0.81;100.00;93508.34;5024812;28;20017;-40
2023/01/12 05:10:57;;;;;;;19.30;9.68;;;;;;;0.88;99.69;93502.47;5027453;28;20106;-41
2023/01/12 05:13:25;;;;;;;17.08;8.98;;;;;;;0.90;100.00;93505.44;5027485;28;20045;-40
2023/01/12 05:15:50;;;;;;;16.23;9.45;;;;;;;1.02;99.66;93506.97;5018687;28;20060;-40
2023/01/12 05:18:16;;;;;;;17.80;10.18;;;;;;;1.02;98.99;93498.09;5007283;28;20490;-40
2023/01/12 05:20:41;;;;;;;20.10;10.25;;;;;;;1.17;98.40;93502.13;5007873;28;20037;-40
2023/01/12 05:23:07;;;;;;;15.57;10.10;;;;;;;1.01;97.83;93505.50;5007297;28;20559;-40
2023/01/12 05:25:32;;;;;;;27.63;15.70;;;;;;;0.91;97.99;93512.34;5007643;28;20029;-40
2023/01/12 05:27:58;;;;;;;18.83;9.93;;;;;;;0.92;99.13;93504.94;5007427;28;20088;-40
2023/01/12 05:30:26;;;;;;;16.35;9.80;;;;;;;0.88;98.46;93499.75;5020557;28;20060;-40
2023/01/12 05:32:51;;;;;;;17.50;10.45;;;;;;;1.04;98.59;93503.81;5027117;28;20065;-40
2023/01/12 05:35:17;;;;;;;19.05;11.18;;;;;;;0.86;98.31;93506.88;5027551;28;20091;-40
2023/01/12 05:37:43;;;;;;;22.75;13.18;;;;;;;0.84;99.02;93504.66;5031074;28;20083;-40
2023/01/12 05:40:09;;;;;;;23.65;11.10;;;;;;;0.94;99.16;93516.81;5031517;28;20021;-40
2023/01/12 05:45:18;;;;;;;21.02;10.73;;;;;;;0.99;98.65;93518.84;5024062;28;20033;-40
2023/01/12 05:47:44;;;;;;;13.90;8.95;;;;;;;0.95;99.10;93517.56;5011514;28;20578;-40
2023/01/12 05:50:09;;;;;;;16.10;9.10;;;;;;;1.00;98.95;93523.03;5011658;28;20037;-40
2023/01/12 05:52:35;;;;;;;15.00;8.05;;;;;;;1.04;98.93;93514.66;5011002;28;20486;-40
2023/01/12 05:55:00;;;;;;;19.70;9.50;;;;;;;1.16;97.92;93522.41;5011052;28;20041;-40
2023/01/12 05:57:28;;;;;;;11.40;7.18;;;;;;;1.10;98.17;93524.34;5011473;28;20021;-40
2023/01/12 05:59:54;;;;;;;17.30;10.17;;;;;;;1.09;98.14;93531.00;5010978;28;20026;-40
2023/01/12 06:02:20;;;;;;;24.10;12.88;;;;;;;1.17;97.15;93534.03;5010961;28;20033;-40
2023/01/12 06:04:45;;;;;;;25.98;14.18;;;;;;;1.03;98.04;93524.78;5019845;28;20025;-40
2023/01/12 06:07:12;;;;;;;29.15;13.15;;;;;;;1.06;98.41;93537.41;5030466;28;20030;-40
2023/01/12 06:09:38;;;;;;;26.67;14.93;;;;;;;1.18;97.38;93540.94;5030529;28;20544;-40
2023/01/12 06:14:48;;;;;;;37.20;23.90;;;;;;;1.21;97.50;93548.13;5010796;28;20045;-40
2023/01/12 06:17:13;;;;;;;31.45;18.25;;;;;;;1.16;98.18;93549.59;5010578;28;20038;-40
2023/01/12 06:19:39;;;;;;;25.08;14.57;;;;;;;1.18;97.71;93541.69;5010785;28;20030;-40
2023/01/12 06:22:07;;;;;;;17.25;10.48;;;;;;;1.28;96.82;93555.81;5010458;28;20038;-40
2023/01/12 06:24:33;;;;;;;15.82;9.00;;;;;;;1.23;97.24;93559.28;5010762;28;20041;-40
2023/01/12 06:26:59;;;;;;;18.63;11.30;;;;;;;1.23;97.70;93565.47;5010859;28;20034;-40
2023/01/12 06:29:24;;;;;;;18.48;10.23;;;;;;;1.29;97.22;93558.06;5015304;28;20441;-40
2023/01/12 06:31:50;;;;;;;15.20;9.18;;;;;;;1.35;97.64;93558.84;5030685;28;20029;-40
2023/01/12 06:34:15;;;;;;;19.48;9.48;;;;;;;1.36;97.48;93552.19;5030166;28;20651;-40
2023/01/12 06:36:41;;;;;;;29.15;11.73;;;;;;;1.46;96.48;93553.47;5030020;28;20405;-40
2023/01/12 06:39:06;;;;;;;14.85;9.88;;;;;;;1.47;96.18;93554.94;5030473;28;20036;-40
2023/01/12 06:44:17;;;;;;;21.35;12.40;;;;;;;1.37;97.13;93547.47;5030340;28;20504;-40
2023/01/12 06:46:43;;;;;;;19.10;11.45;;;;;;;1.39;96.99;93553.91;5010608;28;20105;-40
2023/01/12 06:49:08;;;;;;;16.48;10.25;;;;;;;1.49;96.03;93552.47;5010191;28;20026;-40
2023/01/12 06:51:34;;;;;;;17.17;9.48;;;;;;;1.47;96.48;93556.94;5010499;28;20421;-40
2023/01/12 06:54:00;;;;;;;14.65;8.75;;;;;;;1.54;96.25;93556.44;5010034;28;20732;-40
2023/01/12 06:56:25;;;;;;;12.80;7.50;;;;;;;1.61;95.71;93566.88;5010146;28;20068;-40
2023/01/12 06:58:51;;;;;;;12.00;7.70;;;;;;;1.61;95.85;93555.25;5010130;28;20083;-40
2023/01/12 07:01:17;;;;;;;22.13;10.98;;;;;;;1.69;95.93;93562.44;5010091;28;20041;-40
2023/01/12 07:03:42;;;;;;;17.65;8.75;;;;;;;1.72;96.72;93566.94;5009837;28;20048;-41
2023/01/12 07:06:08;;;;;;;11.32;7.22;;;;;;;1.73;96.30;93564.97;5029632;28;20045;-40
2023/01/12 07:08:34;;;;;;;12.02;7.40;;;;;;;1.82;96.37;93570.19;5019511;28;20120;-40
2023/01/12 07:11:02;;;;;;;10.32;6.78;;;;;;;1.90;95.02;93571.22;5009581;28;20034;-40
2023/01/12 07:13:31;;;;;;;8.40;6.43;;;;;;;1.88;94.50;93560.06;5010061;28;20026;-40
2023/01/12 07:16:00;;;;;;;10.48;6.68;;;;;;;1.96;95.08;93570.00;5009406;28;20022;-40
2023/01/12 07:18:26;;;;;;;10.38;6.40;;;;;;;2.06;94.05;93573.22;5009393;28;20033;-41
2023/01/12 07:20:52;;;;;;;9.85;6.18;;;;;;;2.14;93.42;93566.81;5009869;28;20033;-40
2023/01/12 07:23:17;;;;;;;11.15;7.43;;;;;;;2.03;93.47;93576.94;5009548;28;20030;-40
2023/01/12 07:25:43;;;;;;;14.02;8.15;;;;;;;2.21;92.11;93573.75;5009662;28;20026;-40
2023/01/12 07:28:08;;;;;;;18.08;8.88;;;;;;;2.14;92.86;93571.53;5009743;28;20575;-40
2023/01/12 07:30:34;;;;;;;13.32;8.65;;;;;;;2.16;93.07;93567.09;5023937;28;20033;-40
2023/01/12 07:33:11;;;;;;;9.38;6.45;;;;;;;2.09;93.81;93566.81;5029379;28;20045;-40
2023/01/12 07:35:36;;;;;;;9.68;6.53;;;;;;;2.20;93.14;93569.56;5029009;28;20099;-40
2023/01/12 07:38:02;;;;;;;14.13;8.20;;;;;;;2.24;92.85;93567.34;5028887;28;20029;-40
2023/01/12 07:40:27;;;;;;;11.68;8.20;;;;;;;2.13;93.01;93575.47;5029094;28;20096;-40
2023/01/12 07:43:00;;;;;;;12.70;8.43;;;;;;;2.23;92.96;93571.31;5029053;28;20458;-40
2023/01/12 07:45:26;;;;;;;12.82;8.57;;;;;;;2.21;93.37;93573.75;5020935;28;20030;-40
2023/01/12 07:47:52;;;;;;;12.70;7.90;;;;;;;2.36;93.28;93574.28;5009215;28;20571;-40
2023/01/12 07:50:18;;;;;;;16.67;9.85;;;;;;;2.48;92.60;93562.19;5009392;28;20413;-40
2023/01/12 07:52:44;;;;;;;11.80;8.88;;;;;;;2.45;92.47;93573.34;5008698;28;20034;-40
2023/01/12 07:55:09;;;;;;;11.20;6.85;;;;;;;2.44;92.64;93575.31;5008949;28;20030;-41
2023/01/12 07:57:36;;;;;;;13.35;7.25;;;;;;;2.44;91.79;93575.31;5008860;28;20048;-40
2023/01/12 08:00:05;;;;;;;10.80;7.13;;;;;;;2.40;92.12;93580.25;5007409;28;20026;-40
2023/01/12 08:02:31;;;;;;;13.57;7.53;;;;;;;2.30;92.46;93587.91;5009152;28;20033;-40
2023/01/12 08:04:56;;;;;;;9.85;6.97;;;;;;;2.34;92.60;93582.22;5008710;28;20029;-40
2023/01/12 08:07:22;;;;;;;12.15;7.25;;;;;;;2.52;91.26;93584.47;5008869;28;20037;-40
2023/01/12 08:09:47;;;;;;;16.58;9.68;;;;;;;2.54;91.84;93582.00;5008795;28;20543;-40
2023/01/12 08:12:13;;;;;;;9.13;6.80;;;;;;;2.65;92.52;93581.28;5008909;28;20044;-40
2023/01/12 08:14:40;;;;;;;5.43;4.07;;;;;;;2.66;93.20;93591.69;5008510;28;20030;-40
2023/01/12 08:17:13;;;;;;;4.95;4.03;;;;;;;2.64;93.14;93591.41;5007353;28;20622;-40
2023/01/12 08:19:43;;;;;;;4.07;3.15;;;;;;;2.71;92.14;93584.75;5008598;28;20026;-40
2023/01/12 08:22:14;;;;;;;6.30;4.65;;;;;;;2.67;93.15;93590.44;5007216;28;20213;-40
2023/01/12 08:24:44;;;;;;;5.68;4.55;;;;;;;2.61;92.78;93588.94;5008522;28;20029;-40
2023/01/12 08:27:09;;;;;;;6.13;4.45;;;;;;;2.50;93.48;93584.22;5008748;28;20112;-40
2023/01/12 08:29:44;;;;;;;7.82;4.47;;;;;;;2.46;94.37;93591.16;5013579;28;20469;-40
2023/01/12 08:32:12;;;;;;;8.18;4.55;;;;;;;2.51;93.83;93596.63;5027095;28;20095;-40
2023/01/12 08:34:39;;;;;;;6.40;4.65;;;;;;;2.62;94.58;93583.00;5027916;28;20521;-40
2023/01/12 08:37:07;;;;;;;7.05;5.38;;;;;;;2.64;94.17;93585.97;5026656;28;20037;-40
2023/01/12 08:39:34;;;;;;;8.88;5.43;;;;;;;2.70;92.49;93586.00;5028288;28;20048;-40
2023/01/12 08:42:00;;;;;;;15.52;8.63;;;;;;;2.61;92.96;93586.97;5026293;28;20036;-40
2023/01/12 08:44:30;;;;;;;18.17;9.77;;;;;;;2.67;93.29;93586.97;5028146;28;20036;-40
2023/01/12 08:46:56;;;;;;;15.80;9.45;;;;;;;2.67;93.12;93576.06;5007833;28;20033;-40
2023/01/12 08:49:25;;;;;;;13.38;7.60;;;;;;;2.76;92.24;93578.56;5008093;28;20030;-40
2023/01/12 08:51:51;;;;;;;15.43;8.35;;;;;;;2.72;92.26;93578.81;5008156;28;20563;-40
2023/01/12 08:54:18;;;;;;;19.13;9.50;;;;;;;2.68;93.13;93577.56;5007977;28;20026;-40
2023/01/12 08:56:43;;;;;;;9.75;6.55;;;;;;;2.74;92.80;93579.06;5007716;28;20037;-40
2023/01/12 08:59:09;;;;;;;7.65;5.55;;;;;;;2.64;93.35;93572.34;5008109;28;20042;-40
2023/01/12 09:01:34;;;;;;;9.95;6.82;;;;;;;2.78;93.67;93576.06;5007789;28;20046;-40
2023/01/12 09:04:00;;;;;;;7.10;4.72;;;;;;;2.88;92.54;93577.34;5007753;28;20501;-40
2023/01/12 09:06:29;;;;;;;11.23;5.82;;;;;;;3.07;91.91;93581.03;5008036;28;20026;-40
2023/01/12 09:08:59;;;;;;;6.73;4.60;;;;;;;3.12;91.14;93585.00;5008084;28;20449;-40
2023/01/12 09:11:26;;;;;;;5.82;4.40;;;;;;;3.10;91.08;93584.78;5007643;28;20037;-40
2023/01/12 09:13:52;;;;;;;6.15;4.05;;;;;;;3.05;91.73;93583.53;5008228;28;20034;-40
2023/01/12 09:16:18;;;;;;;5.97;4.07;;;;;;;3.01;91.55;93588.50;5007530;28;20517;-40
2023/01/12 09:18:44;;;;;;;6.10;4.65;;;;;;;3.00;91.41;93587.00;5006524;28;20775;-41
2023/01/12 09:21:12;;;;;;;4.07;3.55;;;;;;;2.94;91.80;93587.00;5007747;28;20033;-40
2023/01/12 09:23:38;;;;;;;3.85;3.38;;;;;;;2.98;91.40;93578.56;5007627;28;20038;-40
2023/01/12 09:26:05;;;;;;;5.10;3.60;;;;;;;2.97;90.82;93574.34;5007974;28;20030;-40
2023/01/12 09:28:32;;;;;;;4.47;3.03;;;;;;;3.17;91.12;93573.34;5007952;28;20438;-40
2023/01/12 09:31:02;;;;;;;3.45;2.67;;;;;;;3.41;89.59;93574.28;5006362;28;20091;-40
2023/01/12 09:33:29;;;;;;;3.28;2.72;;;;;;;3.41;88.60;93568.09;5006812;28;20077;-40
2023/01/12 09:35:59;;;;;;;3.85;2.90;;;;;;;3.27;88.38;93577.31;5007121;28;20045;-40
2023/01/12 09:38:24;;;;;;;3.35;3.00;;;;;;;3.44;88.45;93573.31;5007530;28;20044;-40
2023/01/12 09:40:50;;;;;;;4.50;2.85;;;;;;;3.32;88.18;93571.81;5007885;28;20484;-40
2023/01/12 09:46:57;;;;;;;3.25;2.95;;;;;;;3.04;88.61;93562.94;5007228;28;20045;-40
2023/01/12 09:49:04;;;;;;;6.80;4.43;;;;;;;3.26;89.05;93570.34;5007820;28;20076;-40
2023/01/12 09:51:37;;;;;;;7.38;5.03;;;;;;;3.26;88.84;93568.38;5005798;28;20042;-40
2023/01/12 09:54:03;;;;;;;9.20;5.72;;;;;;;3.44;89.46;93569.84;5005916;28;20417;-40
2023/01/12 09:56:51;;;;;;;6.47;4.18;;;;;;;3.39;88.26;93571.31;5006130;28;20569;-40
2023/01/12 09:59:28;;;;;;;5.00;3.95;;;;;;;3.25;88.86;93571.59;5006286;28;20492;-40
2023/01/12 10:01:55;;;;;;;6.13;4.30;;;;;;;3.47;88.75;93569.56;5007272;28;20033;-40
2023/01/12 10:04:21;;;;;;;6.78;4.63;;;;;;;3.38;89.03;93566.38;5013213;28;20034;-40
2023/01/12 10:06:46;;;;;;;5.47;3.83;;;;;;;3.35;88.74;93567.38;5025750;28;20033;-41
2023/01/12 10:09:18;;;;;;;4.57;3.33;;;;;;;3.26;89.19;93562.16;5027222;28;20025;-40
2023/01/12 10:12:05;;;;;;;6.18;4.22;;;;;;;3.45;88.69;93566.59;5025798;28;20033;-40
2023/01/12 10:14:46;;;;;;;4.22;3.38;;;;;;;3.40;87.96;93563.88;5027085;28;20025;-40
2023/01/12 10:17:29;;;;;;;3.90;3.50;;;;;;;3.38;89.32;93567.09;5020182;28;20109;-41
2023/01/12 10:20:17;;;;;;;3.60;3.22;;;;;;;3.41;88.88;93568.84;5007247;28;20066;-40
2023/01/12 10:22:48;;;;;;;3.88;3.03;;;;;;;3.11;89.35;93556.22;5008331;28;20042;-40
2023/01/12 10:25:32;;;;;;;6.78;2.83;;;;;;;3.32;89.14;93557.44;5011386;28;20082;-40
2023/01/12 10:27:58;;;;;;;2.80;2.38;;;;;;;3.40;88.17;93559.16;5010697;28;20559;-40
2023/01/12 10:30:33;;;;;;;2.42;2.22;;;;;;;3.27;89.39;93563.66;5023757;28;20029;-40
2023/01/12 10:33:37;;;;;;;3.35;2.67;;;;;;;3.29;88.50;93556.44;5030728;28;20032;-40
2023/01/12 10:36:15;;;;;;;2.80;2.60;;;;;;;3.30;89.51;93554.47;4987620;28;20046;-40
2023/01/12 10:38:59;;;;;;;2.00;1.88;;;;;;;3.26;89.11;93551.25;4972367;28;20237;-40
2023/01/12 10:41:36;;;;;;;2.60;2.40;;;;;;;3.43;87.96;93554.69;5016268;28;20063;-40
2023/01/12 10:44:02;;;;;;;3.30;2.55;;;;;;;3.42;88.10;93553.22;5028824;28;20152;-40
2023/01/12 10:46:30;;;;;;;5.43;3.92;;;;;;;3.44;88.40;93548.75;5014044;28;20018;-40
2023/01/12 10:49:21;;;;;;;4.43;2.83;;;;;;;3.48;88.16;93553.94;5010349;28;20088;-40
2023/01/12 10:52:26;;;;;;;4.28;3.03;;;;;;;3.68;89.18;93546.16;5010641;28;20036;-40
2023/01/12 10:54:52;;;;;;;4.32;3.92;;;;;;;3.54;87.58;93543.75;4990347;28;20105;-40
2023/01/12 10:57:22;;;;;;;5.03;3.67;;;;;;;3.60;88.62;93533.53;5005374;28;20562;-40
2023/01/12 10:59:58;;;;;;;16.35;7.28;;;;;;;3.77;88.27;93537.69;4989809;28;20101;-40
2023/01/12 11:02:27;;;;;;;13.88;8.02;;;;;;;3.83;87.50;93538.41;4990340;28;20025;-40
2023/01/12 11:04:53;;;;;;;12.43;5.70;;;;;;;3.83;87.83;93535.69;5010208;28;20041;-40
2023/01/12 11:07:25;;;;;;;12.57;6.90;;;;;;;4.12;85.96;93541.75;5028495;28;20034;-40
2023/01/12 11:09:52;;;;;;;13.07;6.32;;;;;;;4.15;85.93;93538.78;5029534;28;20037;-40
2023/01/12 11:12:31;;;;;;;7.68;3.85;;;;;;;4.16;85.70;93537.50;5029979;28;20049;-40
2023/01/12 11:15:15;;;;;;;9.65;6.68;;;;;;;4.46;85.19;93541.06;5028289;28;20037;-40
2023/01/12 11:18:23;;;;;;;12.35;7.10;;;;;;;4.45;84.72;93528.66;5018559;28;20033;-40
2023/01/12 11:21:16;;;;;;;21.40;11.25;;;;;;;4.52;85.00;93532.84;5008777;28;20551;-40
2023/01/12 11:24:02;;;;;;;4.25;3.38;;;;;;;4.55;84.17;93532.56;5004775;28;20124;-40
2023/01/12 11:26:32;;;;;;;5.80;3.65;;;;;;;4.58;83.75;93525.34;5008993;28;20017;-40
2023/01/12 11:29:13;;;;;;;5.22;3.75;;;;;;;4.60;84.25;93528.31;5008761;28;20438;-40
2023/01/12 11:31:41;;;;;;;4.00;3.33;;;;;;;4.83;83.20;93528.88;5008444;28;20033;-40
2023/01/12 11:34:20;;;;;;;9.30;4.18;;;;;;;5.21;81.62;93527.81;5008728;28;20056;-41
2023/01/12 11:36:50;;;;;;;4.38;3.40;;;;;;;5.62;81.22;93522.16;5008239;28;20037;-40
2023/01/12 11:39:20;;;;;;;4.30;3.33;;;;;;;5.65;80.08;93521.13;5008121;28;20033;-40
2023/01/12 11:44:44;;;;;;;6.38;4.18;;;;;;;5.95;78.13;93511.59;5009178;28;20036;-40
2023/01/12 11:47:14;;;;;;;5.95;2.88;;;;;;;5.91;77.47;93516.59;5009240;28;20045;-40
2023/01/12 11:50:01;;;;;;;4.68;2.42;;;;;;;5.92;76.78;93512.59;5009450;28;20880;-40
2023/01/12 11:52:27;;;;;;;2.13;1.77;;;;;;;5.88;75.10;93514.91;5009296;28;20525;-40
2023/01/12 11:54:52;;;;;;;4.63;3.10;;;;;;;5.62;76.71;93514.69;5007871;28;20087;-40
2023/01/12 11:57:36;;;;;;;7.47;5.05;;;;;;;5.77;77.29;93511.50;5009464;28;20509;-40
2023/01/12 12:00:13;;;;;;;5.10;3.40;;;;;;;5.76;77.36;93501.84;5009040;28;20029;-40
2023/01/12 12:02:58;;;;;;;4.15;3.17;;;;;;;5.56;77.36;93513.25;5009141;28;20050;-40
2023/01/12 12:05:49;;;;;;;2.80;2.60;;;;;;;5.44;77.27;93509.88;5009283;28;20104;-40
2023/01/12 12:08:51;;;;;;;3.20;2.85;;;;;;;5.23;78.97;93512.34;5007888;28;20034;-40
2023/01/12 12:11:26;;;;;;;8.20;5.75;;;;;;;5.29;79.28;93506.81;5009067;28;20065;-40
2023/01/12 12:14:18;;;;;;;13.68;8.73;;;;;;;5.67;79.40;93507.66;5008937;28;20056;-40
2023/01/12 12:17:19;;;;;;;10.35;7.10;;;;;;;5.86;77.08;93511.94;5008853;28;20073;-40
2023/01/12 12:20:12;;;;;;;6.75;3.72;;;;;;;5.53;77.02;93508.78;5006845;28;20038;-40
2023/01/12 12:22:50;;;;;;;7.55;4.68;;;;;;;5.57;77.42;93512.72;5008824;28;20100;-40
2023/01/12 12:25:18;;;;;;;8.10;5.18;;;;;;;5.50;76.84;93515.31;4989230;28;20029;-41